Avila, Spain

9:29 AM CET on November 23, 2014 (GMT +0100)
Avila -La Colilla- | Change Station
CLOSE
Current Station
Personal Weather Station
Location: La Colilla, ÁVILA, CASTILLA Y LEÓN
Elevation: 3789 ft
Nearby Weather Stations

Elev 3789 ft 40.64 °N, 4.77 °W | Updated 7 seconds ago

Light Rain
Light Rain
49.6 °F
Feels Like 48 °F
N
5.0
Wind Variable Wind from South
Gusts 8.0 mph

Today
High -- | Low -- °F
--% Chance of Precip.
Yesterday
High -- | Low -- °F
Precip. -- in
8:14 AM 5:55 PM
New Moon, 1% visible
Pressure 29.83 in
Visibility 5.0 miles
Clouds Few 3200 ft
Mostly Cloudy 4800 ft
Windchill 48 °F
Dew Point 48 °F
Humidity 93%
Rainfall 0.00 in
Snow Depth Not available.
UV 0 out of 12
Pollen Not available.
Air Quality Not available.
Flu Activity Not available.
METAR LESA 230800Z 15003KT 100V190 8000 -RA FEW032 BKN048 12/10 Q1010

More Conditions Fewer Conditions

Pressure 29.83 in
Visibility 5.0 miles
Clouds Few 3200 ft
Mostly Cloudy 4800 ft
Windchill 48 °F
Dew Point 48 °F
Humidity 93%
Rainfall 0.00 in
Snow Depth Not available.
UV 0 out of 12
Pollen Not available.
Air Quality Not available.
Flu Activity Not available.
METAR LESA 230800Z 15003KT 100V190 8000 -RA FEW032 BKN048 12/10 Q1010

More Conditions Fewer Conditions

10-Day Weather Forecast

Almanac

Astronomy

Nov. 23, 2014 Rise Set
Actual Time
Civil Twilight
Nautical Twilight
Astronomical Twilight
Moon
Length of Visible Light
Length of Day
Tomorrow will be .
, % of the Moon is Illuminated

Today's Extremes

Country Highs Country Lows

Community

WunderPhotos

Upload Photos

1,773,024 photos uploaded!

WunderBlogs® & News

Nearby

Air Quality

  Air Quality AQ Index Pollutant
Not available.

Snow Depth

Station Depth Elevation

Earthquake Activity

City Distance Mag. Time & Date
Minimum magnitude displayed is 2.5.

Coastal Water Temperatures

Place Temperature

Nearby Weather Stations